sensor_id;sensor_type;location;lat;lon;timestamp;temperature;humidity
34927;DHT22;21132;48.308;14.274;2023-03-01T00:02:21;6.10;48.20
34927;DHT22;21132;48.308;14.274;2023-03-01T00:04:47;6.00;48.10
34927;DHT22;21132;48.308;14.274;2023-03-01T00:07:13;6.00;48.10
34927;DHT22;21132;48.308;14.274;2023-03-01T00:09:39;6.00;48.10
34927;DHT22;21132;48.308;14.274;2023-03-01T00:12:05;6.00;48.20
34927;DHT22;21132;48.308;14.274;2023-03-01T00:14:32;6.00;48.20
34927;DHT22;21132;48.308;14.274;2023-03-01T00:16:58;6.00;48.10
34927;DHT22;21132;48.308;14.274;2023-03-01T00:19:24;6.00;48.10
34927;DHT22;21132;48.308;14.274;2023-03-01T00:21:51;5.90;48.00
34927;DHT22;21132;48.308;14.274;2023-03-01T00:24:17;5.90;48.10
34927;DHT22;21132;48.308;14.274;2023-03-01T00:26:43;5.90;48.20
34927;DHT22;21132;48.308;14.274;2023-03-01T00:29:09;5.90;48.10
34927;DHT22;21132;48.308;14.274;2023-03-01T00:31:35;5.90;48.10
34927;DHT22;21132;48.308;14.274;2023-03-01T00:34:04;5.90;48.00
34927;DHT22;21132;48.308;14.274;2023-03-01T00:36:33;5.90;48.00
34927;DHT22;21132;48.308;14.274;2023-03-01T00:38:59;5.90;48.10
34927;DHT22;21132;48.308;14.274;2023-03-01T00:41:25;5.80;48.00
34927;DHT22;21132;48.308;14.274;2023-03-01T00:43:55;5.90;48.00
34927;DHT22;21132;48.308;14.274;2023-03-01T00:46:23;5.90;48.00
34927;DHT22;21132;48.308;14.274;2023-03-01T00:48:50;5.90;48.00
34927;DHT22;21132;48.308;14.274;2023-03-01T00:51:25;5.90;48.00
34927;DHT22;21132;48.308;14.274;2023-03-01T00:53:54;5.90;48.00
34927;DHT22;21132;48.308;14.274;2023-03-01T00:56:22;5.80;47.80
34927;DHT22;21132;48.308;14.274;2023-03-01T00:58:48;5.80;47.80
34927;DHT22;21132;48.308;14.274;2023-03-01T01:01:17;5.80;47.80
34927;DHT22;21132;48.308;14.274;2023-03-01T01:03:48;5.80;47.80
34927;DHT22;21132;48.308;14.274;2023-03-01T01:06:20;5.80;47.80
34927;DHT22;21132;48.308;14.274;2023-03-01T01:08:46;5.80;47.80
34927;DHT22;21132;48.308;14.274;2023-03-01T01:11:12;5.80;47.80
34927;DHT22;21132;48.308;14.274;2023-03-01T01:13:39;5.80;47.80
34927;DHT22;21132;48.308;14.274;2023-03-01T01:16:06;5.70;47.80
34927;DHT22;21132;48.308;14.274;2023-03-01T01:18:32;5.70;47.70
34927;DHT22;21132;48.308;14.274;2023-03-01T01:21:04;5.70;47.70
34927;DHT22;21132;48.308;14.274;2023-03-01T01:23:30;5.70;47.70
34927;DHT22;21132;48.308;14.274;2023-03-01T01:25:56;5.70;47.60
34927;DHT22;21132;48.308;14.274;2023-03-01T01:28:21;5.70;47.60
34927;DHT22;21132;48.308;14.274;2023-03-01T01:30:47;5.70;47.60
34927;DHT22;21132;48.308;14.274;2023-03-01T01:33:13;5.70;47.60
34927;DHT22;21132;48.308;14.274;2023-03-01T01:35:39;5.60;47.50
34927;DHT22;21132;48.308;14.274;2023-03-01T01:38:04;5.70;47.50
34927;DHT22;21132;48.308;14.274;2023-03-01T01:40:30;5.70;47.50
34927;DHT22;21132;48.308;14.274;2023-03-01T01:42:56;5.70;47.50
34927;DHT22;21132;48.308;14.274;2023-03-01T01:45:36;5.70;47.50
34927;DHT22;21132;48.308;14.274;2023-03-01T01:48:09;5.60;47.40
34927;DHT22;21132;48.308;14.274;2023-03-01T01:50:39;5.70;47.50
34927;DHT22;21132;48.308;14.274;2023-03-01T01:53:15;5.60;47.50
34927;DHT22;21132;48.308;14.274;2023-03-01T01:55:46;5.60;48.20
34927;DHT22;21132;48.308;14.274;2023-03-01T01:58:16;5.60;47.60
34927;DHT22;21132;48.308;14.274;2023-03-01T02:00:43;5.60;47.60
34927;DHT22;21132;48.308;14.274;2023-03-01T02:03:17;5.60;47.70
34927;DHT22;21132;48.308;14.274;2023-03-01T02:05:57;5.60;47.70
34927;DHT22;21132;48.308;14.274;2023-03-01T02:08:27;5.60;47.80
34927;DHT22;21132;48.308;14.274;2023-03-01T02:10:59;5.60;47.70
34927;DHT22;21132;48.308;14.274;2023-03-01T02:13:27;5.60;47.70
34927;DHT22;21132;48.308;14.274;2023-03-01T02:15:53;5.50;47.70
34927;DHT22;21132;48.308;14.274;2023-03-01T02:18:20;5.50;47.70
34927;DHT22;21132;48.308;14.274;2023-03-01T02:23:22;5.50;48.00
34927;DHT22;21132;48.308;14.274;2023-03-01T02:26:11;5.50;48.00
34927;DHT22;21132;48.308;14.274;2023-03-01T02:28:41;5.50;47.90
34927;DHT22;21132;48.308;14.274;2023-03-01T02:31:09;5.50;47.90
34927;DHT22;21132;48.308;14.274;2023-03-01T02:33:55;5.50;48.00
34927;DHT22;21132;48.308;14.274;2023-03-01T02:36:26;5.50;48.20
34927;DHT22;21132;48.308;14.274;2023-03-01T02:38:57;5.50;48.20
34927;DHT22;21132;48.308;14.274;2023-03-01T02:41:25;5.40;48.10
34927;DHT22;21132;48.308;14.274;2023-03-01T02:43:51;5.50;48.30
34927;DHT22;21132;48.308;14.274;2023-03-01T02:46:21;5.40;48.80
34927;DHT22;21132;48.308;14.274;2023-03-01T02:48:55;5.40;48.80
34927;DHT22;21132;48.308;14.274;2023-03-01T02:51:45;5.40;48.40
34927;DHT22;21132;48.308;14.274;2023-03-01T02:54:48;5.40;48.10
34927;DHT22;21132;48.308;14.274;2023-03-01T02:57:17;5.40;48.20
34927;DHT22;21132;48.308;14.274;2023-03-01T02:59:43;5.40;48.20
34927;DHT22;21132;48.308;14.274;2023-03-01T03:02:27;5.40;48.50
34927;DHT22;21132;48.308;14.274;2023-03-01T03:05:06;5.40;48.40
34927;DHT22;21132;48.308;14.274;2023-03-01T03:07:34;5.40;48.40
34927;DHT22;21132;48.308;14.274;2023-03-01T03:10:02;5.40;48.40
34927;DHT22;21132;48.308;14.274;2023-03-01T03:12:28;5.30;48.40
34927;DHT22;21132;48.308;14.274;2023-03-01T03:14:54;5.30;48.50
34927;DHT22;21132;48.308;14.274;2023-03-01T03:17:20;5.40;48.60
34927;DHT22;21132;48.308;14.274;2023-03-01T03:19:45;5.30;48.50
34927;DHT22;21132;48.308;14.274;2023-03-01T03:22:12;5.40;48.50
34927;DHT22;21132;48.308;14.274;2023-03-01T03:24:38;5.40;48.50
34927;DHT22;21132;48.308;14.274;2023-03-01T03:27:05;5.40;48.50
34927;DHT22;21132;48.308;14.274;2023-03-01T03:29:31;5.30;48.70
34927;DHT22;21132;48.308;14.274;2023-03-01T03:31:57;5.30;48.60
34927;DHT22;21132;48.308;14.274;2023-03-01T03:34:23;5.30;48.60
34927;DHT22;21132;48.308;14.274;2023-03-01T03:36:56;5.30;48.40
34927;DHT22;21132;48.308;14.274;2023-03-01T03:39:23;5.30;48.40
34927;DHT22;21132;48.308;14.274;2023-03-01T03:41:49;5.30;48.40
34927;DHT22;21132;48.308;14.274;2023-03-01T03:44:15;5.30;48.40
34927;DHT22;21132;48.308;14.274;2023-03-01T03:46:40;5.30;48.40
34927;DHT22;21132;48.308;14.274;2023-03-01T03:49:06;5.20;48.20
34927;DHT22;21132;48.308;14.274;2023-03-01T03:51:32;5.30;48.10
34927;DHT22;21132;48.308;14.274;2023-03-01T03:53:58;5.30;48.10
34927;DHT22;21132;48.308;14.274;2023-03-01T03:56:23;5.30;48.20
34927;DHT22;21132;48.308;14.274;2023-03-01T03:58:51;5.30;48.10
34927;DHT22;21132;48.308;14.274;2023-03-01T04:01:18;5.30;48.00
34927;DHT22;21132;48.308;14.274;2023-03-01T04:03:44;5.30;47.90
34927;DHT22;21132;48.308;14.274;2023-03-01T04:06:15;5.30;47.90
34927;DHT22;21132;48.308;14.274;2023-03-01T04:08:41;5.30;47.90
34927;DHT22;21132;48.308;14.274;2023-03-01T04:11:06;5.30;47.90
34927;DHT22;21132;48.308;14.274;2023-03-01T04:13:52;5.30;47.80
34927;DHT22;21132;48.308;14.274;2023-03-01T04:16:18;5.40;47.80
34927;DHT22;21132;48.308;14.274;2023-03-01T04:18:44;5.40;47.80
34927;DHT22;21132;48.308;14.274;2023-03-01T04:21:10;5.40;47.80
34927;DHT22;21132;48.308;14.274;2023-03-01T04:23:37;5.40;47.70
34927;DHT22;21132;48.308;14.274;2023-03-01T04:26:03;5.40;47.70
34927;DHT22;21132;48.308;14.274;2023-03-01T04:28:35;5.40;47.70
34927;DHT22;21132;48.308;14.274;2023-03-01T04:31:04;5.40;47.60
34927;DHT22;21132;48.308;14.274;2023-03-01T04:33:46;5.40;47.70
34927;DHT22;21132;48.308;14.274;2023-03-01T04:36:14;5.40;47.70
34927;DHT22;21132;48.308;14.274;2023-03-01T04:38:42;5.40;47.70
34927;DHT22;21132;48.308;14.274;2023-03-01T04:41:09;5.30;47.50
34927;DHT22;21132;48.308;14.274;2023-03-01T04:43:36;5.30;47.50
34927;DHT22;21132;48.308;14.274;2023-03-01T04:46:07;5.30;47.50
34927;DHT22;21132;48.308;14.274;2023-03-01T04:48:38;5.30;47.50
34927;DHT22;21132;48.308;14.274;2023-03-01T04:51:06;5.30;47.50
34927;DHT22;21132;48.308;14.274;2023-03-01T04:53:32;5.30;47.50
34927;DHT22;21132;48.308;14.274;2023-03-01T04:55:58;5.20;47.50
34927;DHT22;21132;48.308;14.274;2023-03-01T04:58:26;5.30;48.20
34927;DHT22;21132;48.308;14.274;2023-03-01T05:00:52;5.30;47.80
34927;DHT22;21132;48.308;14.274;2023-03-01T05:03:19;5.30;47.90
34927;DHT22;21132;48.308;14.274;2023-03-01T05:05:47;5.30;47.90
34927;DHT22;21132;48.308;14.274;2023-03-01T05:08:14;5.20;48.00
34927;DHT22;21132;48.308;14.274;2023-03-01T05:10:52;5.30;48.10
34927;DHT22;21132;48.308;14.274;2023-03-01T05:13:20;5.20;47.90
34927;DHT22;21132;48.308;14.274;2023-03-01T05:15:55;5.30;47.90
34927;DHT22;21132;48.308;14.274;2023-03-01T05:18:21;5.30;48.00
34927;DHT22;21132;48.308;14.274;2023-03-01T05:20:55;5.20;47.90
34927;DHT22;21132;48.308;14.274;2023-03-01T05:23:24;5.20;48.20
34927;DHT22;21132;48.308;14.274;2023-03-01T05:25:50;5.20;48.20
34927;DHT22;21132;48.308;14.274;2023-03-01T05:28:19;5.20;48.10
34927;DHT22;21132;48.308;14.274;2023-03-01T05:30:46;5.20;48.10
34927;DHT22;21132;48.308;14.274;2023-03-01T05:33:12;5.20;48.20
34927;DHT22;21132;48.308;14.274;2023-03-01T05:35:45;5.20;48.30
34927;DHT22;21132;48.308;14.274;2023-03-01T05:38:12;5.20;48.30
34927;DHT22;21132;48.308;14.274;2023-03-01T05:40:39;5.20;48.30
34927;DHT22;21132;48.308;14.274;2023-03-01T05:43:06;5.20;48.30
34927;DHT22;21132;48.308;14.274;2023-03-01T05:45:32;5.20;48.30
34927;DHT22;21132;48.308;14.274;2023-03-01T05:47:58;5.20;48.40
34927;DHT22;21132;48.308;14.274;2023-03-01T05:50:29;5.20;48.50
34927;DHT22;21132;48.308;14.274;2023-03-01T05:53:17;5.10;48.40
34927;DHT22;21132;48.308;14.274;2023-03-01T05:55:43;5.10;48.30
34927;DHT22;21132;48.308;14.274;2023-03-01T05:58:12;5.10;48.30
34927;DHT22;21132;48.308;14.274;2023-03-01T06:00:43;5.10;48.30
34927;DHT22;21132;48.308;14.274;2023-03-01T06:03:11;5.10;48.50
34927;DHT22;21132;48.308;14.274;2023-03-01T06:05:39;5.10;48.50
34927;DHT22;21132;48.308;14.274;2023-03-01T06:08:06;5.10;48.40
34927;DHT22;21132;48.308;14.274;2023-03-01T06:10:32;5.10;48.40
34927;DHT22;21132;48.308;14.274;2023-03-01T06:12:58;5.10;48.50
34927;DHT22;21132;48.308;14.274;2023-03-01T06:15:25;5.10;48.60
34927;DHT22;21132;48.308;14.274;2023-03-01T06:17:53;5.10;48.70
34927;DHT22;21132;48.308;14.274;2023-03-01T06:20:22;5.10;49.10
34927;DHT22;21132;48.308;14.274;2023-03-01T06:22:49;5.10;49.50
34927;DHT22;21132;48.308;14.274;2023-03-01T06:25:17;5.10;48.90
34927;DHT22;21132;48.308;14.274;2023-03-01T06:27:44;5.20;49.00
34927;DHT22;21132;48.308;14.274;2023-03-01T06:30:12;5.20;48.80
34927;DHT22;21132;48.308;14.274;2023-03-01T06:32:39;5.20;49.40
34927;DHT22;21132;48.308;14.274;2023-03-01T06:35:10;5.30;48.70
34927;DHT22;21132;48.308;14.274;2023-03-01T06:37:36;5.30;48.90
34927;DHT22;21132;48.308;14.274;2023-03-01T06:40:06;5.40;48.80
34927;DHT22;21132;48.308;14.274;2023-03-01T06:42:37;5.40;48.50
34927;DHT22;21132;48.308;14.274;2023-03-01T06:45:04;5.50;48.60
34927;DHT22;21132;48.308;14.274;2023-03-01T06:47:30;5.50;48.20
34927;DHT22;21132;48.308;14.274;2023-03-01T06:49:56;5.50;48.10
34927;DHT22;21132;48.308;14.274;2023-03-01T06:52:22;5.60;48.20
34927;DHT22;21132;48.308;14.274;2023-03-01T06:54:47;5.60;48.00
34927;DHT22;21132;48.308;14.274;2023-03-01T06:57:13;5.70;47.90
34927;DHT22;21132;48.308;14.274;2023-03-01T06:59:39;5.70;47.80
34927;DHT22;21132;48.308;14.274;2023-03-01T07:02:05;5.80;47.70
34927;DHT22;21132;48.308;14.274;2023-03-01T07:04:31;5.80;47.50
34927;DHT22;21132;48.308;14.274;2023-03-01T07:06:57;5.90;47.50
34927;DHT22;21132;48.308;14.274;2023-03-01T07:09:23;5.90;47.20
34927;DHT22;21132;48.308;14.274;2023-03-01T07:11:49;5.90;47.20
34927;DHT22;21132;48.308;14.274;2023-03-01T07:14:16;6.00;47.20
34927;DHT22;21132;48.308;14.274;2023-03-01T07:16:41;6.10;47.20
34927;DHT22;21132;48.308;14.274;2023-03-01T07:19:07;6.10;47.10
34927;DHT22;21132;48.308;14.274;2023-03-01T07:21:33;6.30;47.20
34927;DHT22;21132;48.308;14.274;2023-03-01T07:23:59;6.30;47.10
34927;DHT22;21132;48.308;14.274;2023-03-01T07:26:24;6.40;47.00
34927;DHT22;21132;48.308;14.274;2023-03-01T07:28:50;6.50;47.10
34927;DHT22;21132;48.308;14.274;2023-03-01T07:31:16;6.50;46.90
34927;DHT22;21132;48.308;14.274;2023-03-01T07:33:42;6.60;46.80
34927;DHT22;21132;48.308;14.274;2023-03-01T07:36:08;6.60;46.30
34927;DHT22;21132;48.308;14.274;2023-03-01T07:38:34;6.70;46.40
34927;DHT22;21132;48.308;14.274;2023-03-01T07:41:02;6.70;46.20
34927;DHT22;21132;48.308;14.274;2023-03-01T07:43:29;6.80;46.30
34927;DHT22;21132;48.308;14.274;2023-03-01T07:45:58;6.80;46.20
34927;DHT22;21132;48.308;14.274;2023-03-01T07:48:25;6.90;46.00
34927;DHT22;21132;48.308;14.274;2023-03-01T07:50:51;6.90;45.70
34927;DHT22;21132;48.308;14.274;2023-03-01T07:53:17;7.00;45.40
34927;DHT22;21132;48.308;14.274;2023-03-01T07:55:42;7.00;45.50
34927;DHT22;21132;48.308;14.274;2023-03-01T07:58:08;7.10;45.60
34927;DHT22;21132;48.308;14.274;2023-03-01T08:00:34;7.10;45.30
34927;DHT22;21132;48.308;14.274;2023-03-01T08:03:00;7.20;45.60
34927;DHT22;21132;48.308;14.274;2023-03-01T08:05:27;7.30;45.50
34927;DHT22;21132;48.308;14.274;2023-03-01T08:07:53;7.40;45.80
34927;DHT22;21132;48.308;14.274;2023-03-01T08:10:20;7.50;45.70
34927;DHT22;21132;48.308;14.274;2023-03-01T08:12:45;7.50;45.40
34927;DHT22;21132;48.308;14.274;2023-03-01T08:15:11;7.60;45.40
34927;DHT22;21132;48.308;14.274;2023-03-01T08:17:37;7.60;45.20
34927;DHT22;21132;48.308;14.274;2023-03-01T08:20:03;7.60;45.00
34927;DHT22;21132;48.308;14.274;2023-03-01T08:22:32;7.70;45.00
34927;DHT22;21132;48.308;14.274;2023-03-01T08:24:58;7.70;44.50
34927;DHT22;21132;48.308;14.274;2023-03-01T08:27:24;7.80;44.70
34927;DHT22;21132;48.308;14.274;2023-03-01T08:29:49;7.80;44.60
34927;DHT22;21132;48.308;14.274;2023-03-01T08:32:15;7.90;44.60
34927;DHT22;21132;48.308;14.274;2023-03-01T08:34:41;7.90;44.50
34927;DHT22;21132;48.308;14.274;2023-03-01T08:37:07;8.00;44.60
34927;DHT22;21132;48.308;14.274;2023-03-01T08:39:32;8.10;44.50
34927;DHT22;21132;48.308;14.274;2023-03-01T08:41:58;8.10;44.40
34927;DHT22;21132;48.308;14.274;2023-03-01T08:44:24;8.20;44.30
34927;DHT22;21132;48.308;14.274;2023-03-01T08:46:50;8.20;44.50
34927;DHT22;21132;48.308;14.274;2023-03-01T08:49:18;8.30;44.70
34927;DHT22;21132;48.308;14.274;2023-03-01T08:51:45;8.30;44.60
34927;DHT22;21132;48.308;14.274;2023-03-01T08:54:14;8.40;44.20
34927;DHT22;21132;48.308;14.274;2023-03-01T08:56:41;8.50;44.30
34927;DHT22;21132;48.308;14.274;2023-03-01T08:59:07;8.50;44.20
34927;DHT22;21132;48.308;14.274;2023-03-01T09:01:33;8.60;44.00
34927;DHT22;21132;48.308;14.274;2023-03-01T09:03:59;8.70;44.30
34927;DHT22;21132;48.308;14.274;2023-03-01T09:06:25;8.70;44.30
34927;DHT22;21132;48.308;14.274;2023-03-01T09:08:51;8.80;44.30
34927;DHT22;21132;48.308;14.274;2023-03-01T09:11:20;8.90;44.10
34927;DHT22;21132;48.308;14.274;2023-03-01T09:13:48;8.90;44.00
34927;DHT22;21132;48.308;14.274;2023-03-01T09:16:17;9.00;44.30
34927;DHT22;21132;48.308;14.274;2023-03-01T09:18:43;9.10;44.30
34927;DHT22;21132;48.308;14.274;2023-03-01T09:21:12;9.10;44.30
34927;DHT22;21132;48.308;14.274;2023-03-01T09:23:40;9.20;44.30
34927;DHT22;21132;48.308;14.274;2023-03-01T09:26:07;9.30;44.30
34927;DHT22;21132;48.308;14.274;2023-03-01T09:28:35;9.40;44.90
34927;DHT22;21132;48.308;14.274;2023-03-01T09:31:02;9.40;44.20
34927;DHT22;21132;48.308;14.274;2023-03-01T09:33:29;9.50;44.10
34927;DHT22;21132;48.308;14.274;2023-03-01T09:36:08;9.60;44.20
34927;DHT22;21132;48.308;14.274;2023-03-01T09:38:35;9.60;44.20
34927;DHT22;21132;48.308;14.274;2023-03-01T09:41:01;9.60;44.30
34927;DHT22;21132;48.308;14.274;2023-03-01T09:46:07;9.80;44.50
34927;DHT22;21132;48.308;14.274;2023-03-01T09:48:46;9.80;44.80
34927;DHT22;21132;48.308;14.274;2023-03-01T09:51:18;9.90;44.70
34927;DHT22;21132;48.308;14.274;2023-03-01T09:53:45;10.00;44.60
34927;DHT22;21132;48.308;14.274;2023-03-01T09:56:30;10.10;44.60
34927;DHT22;21132;48.308;14.274;2023-03-01T09:59:27;10.10;44.40
34927;DHT22;21132;48.308;14.274;2023-03-01T10:02:26;10.20;44.40
34927;DHT22;21132;48.308;14.274;2023-03-01T10:04:51;10.30;44.40
34927;DHT22;21132;48.308;14.274;2023-03-01T10:10:01;10.40;44.40
34927;DHT22;21132;48.308;14.274;2023-03-01T10:12:35;10.50;44.40
34927;DHT22;21132;48.308;14.274;2023-03-01T10:15:22;10.50;44.30
34927;DHT22;21132;48.308;14.274;2023-03-01T10:17:55;10.50;44.30
34927;DHT22;21132;48.308;14.274;2023-03-01T10:20:24;10.60;44.40
34927;DHT22;21132;48.308;14.274;2023-03-01T10:22:51;10.60;44.30
34927;DHT22;21132;48.308;14.274;2023-03-01T10:25:47;10.70;44.40
34927;DHT22;21132;48.308;14.274;2023-03-01T10:28:30;10.70;44.20
34927;DHT22;21132;48.308;14.274;2023-03-01T10:30:58;10.80;44.20
34927;DHT22;21132;48.308;14.274;2023-03-01T10:33:31;10.80;44.10
34927;DHT22;21132;48.308;14.274;2023-03-01T10:35:58;10.80;43.80
34927;DHT22;21132;48.308;14.274;2023-03-01T10:38:24;10.90;44.00
34927;DHT22;21132;48.308;14.274;2023-03-01T10:41:06;10.90;44.00
34927;DHT22;21132;48.308;14.274;2023-03-01T10:43:53;11.00;44.10
34927;DHT22;21132;48.308;14.274;2023-03-01T10:46:27;11.00;44.00
34927;DHT22;21132;48.308;14.274;2023-03-01T10:49:14;11.00;43.70
34927;DHT22;21132;48.308;14.274;2023-03-01T10:51:41;11.10;43.60
34927;DHT22;21132;48.308;14.274;2023-03-01T10:54:30;11.10;43.40
34927;DHT22;21132;48.308;14.274;2023-03-01T10:56:59;11.10;43.80
34927;DHT22;21132;48.308;14.274;2023-03-01T10:59:27;11.20;43.80
34927;DHT22;21132;48.308;14.274;2023-03-01T11:02:29;11.30;43.60
34927;DHT22;21132;48.308;14.274;2023-03-01T11:05:19;11.30;43.80
34927;DHT22;21132;48.308;14.274;2023-03-01T11:08:01;11.40;43.70
34927;DHT22;21132;48.308;14.274;2023-03-01T11:10:34;11.40;43.60
34927;DHT22;21132;48.308;14.274;2023-03-01T11:15:33;11.60;43.90
34927;DHT22;21132;48.308;14.274;2023-03-01T11:17:59;11.60;43.60
34927;DHT22;21132;48.308;14.274;2023-03-01T11:20:32;11.60;43.50
34927;DHT22;21132;48.308;14.274;2023-03-01T11:23:05;11.60;43.40
34927;DHT22;21132;48.308;14.274;2023-03-01T11:25:37;11.60;43.50
34927;DHT22;21132;48.308;14.274;2023-03-01T11:28:06;11.70;43.70
34927;DHT22;21132;48.308;14.274;2023-03-01T11:36:12;11.80;43.50
34927;DHT22;21132;48.308;14.274;2023-03-01T11:38:40;11.80;44.20
34927;DHT22;21132;48.308;14.274;2023-03-01T11:41:13;11.90;43.60
34927;DHT22;21132;48.308;14.274;2023-03-01T11:43:59;11.90;43.30
34927;DHT22;21132;48.308;14.274;2023-03-01T11:54:47;12.10;43.40
34927;DHT22;21132;48.308;14.274;2023-03-01T12:00:21;12.30;43.10
34927;DHT22;21132;48.308;14.274;2023-03-01T12:08:26;12.40;42.90
34927;DHT22;21132;48.308;14.274;2023-03-01T12:13:50;12.40;42.60
34927;DHT22;21132;48.308;14.274;2023-03-01T12:22:38;12.50;42.80
34927;DHT22;21132;48.308;14.274;2023-03-01T12:25:14;12.60;42.80
34927;DHT22;21132;48.308;14.274;2023-03-01T12:44:03;12.90;42.60
34927;DHT22;21132;48.308;14.274;2023-03-01T12:51:32;12.90;42.40
34927;DHT22;21132;48.308;14.274;2023-03-01T12:53:59;12.90;42.40
34927;DHT22;21132;48.308;14.274;2023-03-01T12:56:30;13.00;42.20
34927;DHT22;21132;48.308;14.274;2023-03-01T12:59:00;12.90;41.90
34927;DHT22;21132;48.308;14.274;2023-03-01T13:01:49;12.90;41.90
34927;DHT22;21132;48.308;14.274;2023-03-01T13:07:36;12.90;42.00
34927;DHT22;21132;48.308;14.274;2023-03-01T13:25:27;13.20;41.90
34927;DHT22;21132;48.308;14.274;2023-03-01T13:30:57;13.10;41.60
34927;DHT22;21132;48.308;14.274;2023-03-01T13:35:49;13.10;42.00
34927;DHT22;21132;48.308;14.274;2023-03-01T13:38:47;13.10;41.70
34927;DHT22;21132;48.308;14.274;2023-03-01T13:41:15;13.00;41.90
34927;DHT22;21132;48.308;14.274;2023-03-01T13:43:43;13.00;42.10
34927;DHT22;21132;48.308;14.274;2023-03-01T13:46:19;13.00;42.00
34927;DHT22;21132;48.308;14.274;2023-03-01T13:48:49;13.10;42.20
34927;DHT22;21132;48.308;14.274;2023-03-01T13:51:16;13.10;42.20
34927;DHT22;21132;48.308;14.274;2023-03-01T13:53:46;13.10;42.20
34927;DHT22;21132;48.308;14.274;2023-03-01T13:56:23;13.10;42.30
34927;DHT22;21132;48.308;14.274;2023-03-01T13:58:58;13.20;42.30
34927;DHT22;21132;48.308;14.274;2023-03-01T14:01:30;13.20;42.40
34927;DHT22;21132;48.308;14.274;2023-03-01T14:03:57;13.30;42.30
34927;DHT22;21132;48.308;14.274;2023-03-01T14:06:33;13.30;42.40
34927;DHT22;21132;48.308;14.274;2023-03-01T14:09:14;13.30;41.80
34927;DHT22;21132;48.308;14.274;2023-03-01T14:20:08;13.50;42.00
34927;DHT22;21132;48.308;14.274;2023-03-01T14:22:36;13.50;41.90
34927;DHT22;21132;48.308;14.274;2023-03-01T14:25:21;13.50;41.80
34927;DHT22;21132;48.308;14.274;2023-03-01T14:27:54;13.50;41.70
34927;DHT22;21132;48.308;14.274;2023-03-01T14:30:26;13.60;41.90
34927;DHT22;21132;48.308;14.274;2023-03-01T14:32:57;13.60;41.90
34927;DHT22;21132;48.308;14.274;2023-03-01T14:35:29;13.60;41.70
34927;DHT22;21132;48.308;14.274;2023-03-01T14:37:55;13.70;41.70
34927;DHT22;21132;48.308;14.274;2023-03-01T14:40:28;13.70;41.50
34927;DHT22;21132;48.308;14.274;2023-03-01T14:42:57;13.70;41.60
34927;DHT22;21132;48.308;14.274;2023-03-01T14:45:25;13.70;41.60
34927;DHT22;21132;48.308;14.274;2023-03-01T14:47:52;13.70;41.80
34927;DHT22;21132;48.308;14.274;2023-03-01T14:50:32;13.80;42.00
34927;DHT22;21132;48.308;14.274;2023-03-01T14:53:04;13.80;41.70
34927;DHT22;21132;48.308;14.274;2023-03-01T14:55:40;13.80;41.80
34927;DHT22;21132;48.308;14.274;2023-03-01T14:58:13;13.80;41.60
34927;DHT22;21132;48.308;14.274;2023-03-01T15:01:02;13.70;41.60
34927;DHT22;21132;48.308;14.274;2023-03-01T15:03:42;13.70;41.80
34927;DHT22;21132;48.308;14.274;2023-03-01T15:06:10;13.70;41.70
34927;DHT22;21132;48.308;14.274;2023-03-01T15:08:42;13.70;41.50
34927;DHT22;21132;48.308;14.274;2023-03-01T15:11:23;13.70;41.20
34927;DHT22;21132;48.308;14.274;2023-03-01T15:13:51;13.70;41.40
34927;DHT22;21132;48.308;14.274;2023-03-01T15:16:40;13.80;41.30
34927;DHT22;21132;48.308;14.274;2023-03-01T15:19:07;13.80;41.30
34927;DHT22;21132;48.308;14.274;2023-03-01T15:21:37;13.80;41.30
34927;DHT22;21132;48.308;14.274;2023-03-01T15:26:53;13.90;41.20
34927;DHT22;21132;48.308;14.274;2023-03-01T15:29:26;13.80;41.00
34927;DHT22;21132;48.308;14.274;2023-03-01T15:32:01;13.80;41.10
34927;DHT22;21132;48.308;14.274;2023-03-01T15:34:34;13.70;40.90
34927;DHT22;21132;48.308;14.274;2023-03-01T15:37:03;13.70;40.80
34927;DHT22;21132;48.308;14.274;2023-03-01T15:39:39;13.60;41.00
34927;DHT22;21132;48.308;14.274;2023-03-01T15:42:58;13.50;41.10
34927;DHT22;21132;48.308;14.274;2023-03-01T15:45:22;13.50;41.30
34927;DHT22;21132;48.308;14.274;2023-03-01T15:48:35;13.50;41.60
34927;DHT22;21132;48.308;14.274;2023-03-01T15:50:43;13.40;41.30
34927;DHT22;21132;48.308;14.274;2023-03-01T15:53:13;13.40;41.50
34927;DHT22;21132;48.308;14.274;2023-03-01T15:55:40;13.30;41.80
34927;DHT22;21132;48.308;14.274;2023-03-01T15:58:14;13.30;41.80
34927;DHT22;21132;48.308;14.274;2023-03-01T16:00:41;13.20;41.90
34927;DHT22;21132;48.308;14.274;2023-03-01T16:03:10;13.10;41.90
34927;DHT22;21132;48.308;14.274;2023-03-01T16:05:37;13.10;42.50
34927;DHT22;21132;48.308;14.274;2023-03-01T16:08:05;13.00;42.10
34927;DHT22;21132;48.308;14.274;2023-03-01T16:10:32;12.90;42.10
34927;DHT22;21132;48.308;14.274;2023-03-01T16:12:59;12.80;42.30
34927;DHT22;21132;48.308;14.274;2023-03-01T16:15:29;12.80;42.40
34927;DHT22;21132;48.308;14.274;2023-03-01T16:17:55;12.70;42.50
34927;DHT22;21132;48.308;14.274;2023-03-01T16:20:22;12.70;42.50
34927;DHT22;21132;48.308;14.274;2023-03-01T16:22:48;12.60;42.60
34927;DHT22;21132;48.308;14.274;2023-03-01T16:25:17;12.60;42.60
34927;DHT22;21132;48.308;14.274;2023-03-01T16:27:44;12.50;42.80
34927;DHT22;21132;48.308;14.274;2023-03-01T16:30:11;12.40;42.90
34927;DHT22;21132;48.308;14.274;2023-03-01T16:32:44;12.40;43.10
34927;DHT22;21132;48.308;14.274;2023-03-01T16:35:12;12.20;43.10
34927;DHT22;21132;48.308;14.274;2023-03-01T16:37:39;12.20;43.40
34927;DHT22;21132;48.308;14.274;2023-03-01T16:40:10;12.00;43.30
34927;DHT22;21132;48.308;14.274;2023-03-01T16:42:41;12.00;43.30
34927;DHT22;21132;48.308;14.274;2023-03-01T16:45:08;11.90;43.30
34927;DHT22;21132;48.308;14.274;2023-03-01T16:47:34;11.80;43.60
34927;DHT22;21132;48.308;14.274;2023-03-01T16:50:01;11.80;43.60
34927;DHT22;21132;48.308;14.274;2023-03-01T16:52:27;11.70;43.50
34927;DHT22;21132;48.308;14.274;2023-03-01T16:54:53;11.70;43.50
34927;DHT22;21132;48.308;14.274;2023-03-01T16:57:19;11.60;43.60
34927;DHT22;21132;48.308;14.274;2023-03-01T16:59:45;11.60;43.70
34927;DHT22;21132;48.308;14.274;2023-03-01T17:02:12;11.50;43.80
34927;DHT22;21132;48.308;14.274;2023-03-01T17:04:41;11.40;44.00
34927;DHT22;21132;48.308;14.274;2023-03-01T17:07:07;11.30;44.30
34927;DHT22;21132;48.308;14.274;2023-03-01T17:09:37;11.30;44.50
34927;DHT22;21132;48.308;14.274;2023-03-01T17:12:06;11.20;44.60
34927;DHT22;21132;48.308;14.274;2023-03-01T17:14:32;11.10;44.60
34927;DHT22;21132;48.308;14.274;2023-03-01T17:16:57;11.00;45.00
34927;DHT22;21132;48.308;14.274;2023-03-01T17:19:23;11.00;45.30
34927;DHT22;21132;48.308;14.274;2023-03-01T17:21:50;10.90;45.30